createdAt,value
2019-01-06T00:02:18.173Z,99184.61
2019-01-06T00:05:15.663Z,99181.59
2019-01-06T00:08:04.376Z,99181.60
2019-01-06T00:10:52.666Z,99178.59
2019-01-06T00:13:59.404Z,99176.03
2019-01-06T00:16:47.820Z,99175.16
2019-01-06T00:19:39.005Z,99166.56
2019-01-06T00:22:42.506Z,99165.69
2019-01-06T00:25:34.202Z,99158.80
2019-01-06T00:28:20.903Z,99163.09
2019-01-06T00:31:24.793Z,99166.06
2019-01-06T00:34:15.718Z,99167.80
2019-01-06T00:37:19.548Z,99159.61
2019-01-06T00:40:10.798Z,99162.18
2019-01-06T00:42:57.802Z,99160.87
2019-01-06T00:45:48.783Z,99152.28
2019-01-06T00:48:44.234Z,99143.67
2019-01-06T00:51:50.606Z,99139.39
2019-01-06T00:54:53.908Z,99135.94
2019-01-06T00:57:45.112Z,99125.55
2019-01-06T01:00:32.157Z,99111.81
2019-01-06T01:03:25.845Z,99108.78
2019-01-06T01:06:13.002Z,99102.36
2019-01-06T01:09:08.401Z,99098.02
2019-01-06T01:12:02.837Z,99092.88
2019-01-06T01:14:51.838Z,99091.57
2019-01-06T01:17:43.683Z,99082.94
2019-01-06T01:20:36.030Z,99083.36
2019-01-06T01:23:27.751Z,99074.72
2019-01-06T01:26:18.663Z,99067.00
2019-01-06T01:29:22.560Z,99059.25
2019-01-06T01:32:09.552Z,99063.98
2019-01-06T01:35:09.235Z,99063.08
2019-01-06T01:38:09.019Z,99059.66
2019-01-06T01:40:57.398Z,99048.45
2019-01-06T01:43:44.471Z,99051.45
2019-01-06T01:46:38.962Z,99050.16
2019-01-06T01:49:39.422Z,99043.26
2019-01-06T01:52:33.694Z,99035.53
2019-01-06T01:55:20.338Z,99026.04
2019-01-06T01:58:20.932Z,99017.44
2019-01-06T02:01:03.414Z,99007.06
2019-01-06T02:03:54.559Z,99007.05
2019-01-06T02:06:41.742Z,99003.63
2019-01-06T02:09:30.468Z,98998.00
2019-01-06T02:12:18.870Z,98989.80
2019-01-06T02:15:15.942Z,98989.78
2019-01-06T02:18:02.904Z,98986.73
2019-01-06T02:21:06.356Z,98978.98
2019-01-06T02:23:54.616Z,98985.02
2019-01-06T02:26:41.717Z,98975.91
2019-01-06T02:29:28.601Z,98975.83
2019-01-06T02:32:15.415Z,98974.01
2019-01-06T02:35:02.354Z,98960.25
2019-01-06T02:37:49.484Z,98958.88
2019-01-06T02:40:45.287Z,98951.45
2019-01-06T02:43:42.342Z,98950.48
2019-01-06T02:46:33.653Z,98938.20
2019-01-06T02:49:20.856Z,98929.80
2019-01-06T02:52:01.071Z,98935.73
2019-01-06T02:54:48.108Z,98934.73
2019-01-06T02:57:42.580Z,98932.86
2019-01-06T03:00:34.171Z,98933.81
2019-01-06T03:03:21.182Z,98927.37
2019-01-06T03:06:18.962Z,98923.84
2019-01-06T03:09:22.314Z,98921.60
2019-01-06T03:12:09.961Z,98913.19
2019-01-06T03:14:58.352Z,98914.73
2019-01-06T03:17:59.042Z,98922.42
2019-01-06T03:20:53.174Z,98919.78
2019-01-06T03:23:40.304Z,98916.72
2019-01-06T03:26:27.066Z,98910.33
2019-01-06T03:29:06.843Z,98912.15
2019-01-06T03:31:47.993Z,98907.91
2019-01-06T03:34:45.754Z,98914.41
2019-01-06T03:37:36.774Z,98918.36
2019-01-06T03:40:38.316Z,98917.09
2019-01-06T03:43:35.472Z,98920.52
2019-01-06T03:46:22.919Z,98920.93
2019-01-06T03:49:23.104Z,98923.46
2019-01-06T03:52:20.584Z,98926.91
2019-01-06T03:55:17.841Z,98927.73
2019-01-06T03:58:03.464Z,98926.75
2019-01-06T04:00:54.376Z,98922.87
2019-01-06T04:03:48.925Z,98926.17
2019-01-06T04:06:35.701Z,98918.05
2019-01-06T04:09:37.972Z,98921.02
2019-01-06T04:12:31.066Z,98921.34
2019-01-06T04:15:22.399Z,98919.26
2019-01-06T04:18:04.598Z,98921.65
2019-01-06T04:21:11.306Z,98920.38
2019-01-06T04:23:58.060Z,98924.32
2019-01-06T04:26:45.094Z,98927.27
2019-01-06T04:29:51.637Z,98924.27
2019-01-06T04:32:42.897Z,98922.47
2019-01-06T04:35:39.991Z,98920.20
2019-01-06T04:38:27.178Z,98910.70
2019-01-06T04:41:27.996Z,98904.00
2019-01-06T04:44:16.526Z,98902.20
2019-01-06T04:47:16.893Z,98899.99
2019-01-06T04:50:04.204Z,98892.62
2019-01-06T04:52:51.301Z,98898.22
2019-01-06T04:55:55.044Z,98895.44
2019-01-06T04:58:43.452Z,98890.66
2019-01-06T05:01:30.098Z,98886.39
2019-01-06T05:04:18.401Z,98892.88
2019-01-06T05:07:02.633Z,98893.73
2019-01-06T05:09:49.889Z,98895.37
2019-01-06T05:12:50.743Z,98892.30
2019-01-06T05:15:39.810Z,98890.77
2019-01-06T05:18:31.371Z,98880.60
2019-01-06T05:21:27.253Z,98881.83
2019-01-06T05:24:14.691Z,98890.17
2019-01-06T05:27:05.854Z,98891.40
2019-01-06T05:30:06.447Z,98892.25
2019-01-06T05:32:53.684Z,98894.77
2019-01-06T05:35:55.007Z,98889.03
2019-01-06T05:38:49.509Z,98883.66
2019-01-06T05:41:37.853Z,98880.61
2019-01-06T05:44:25.074Z,98881.88
2019-01-06T05:47:29.636Z,98875.91
2019-01-06T05:50:16.716Z,98881.61
2019-01-06T05:53:22.995Z,98890.17
2019-01-06T05:56:26.159Z,98887.91
2019-01-06T05:59:17.112Z,98884.91
2019-01-06T06:02:05.494Z,98895.70
2019-01-06T06:05:06.151Z,98896.48
2019-01-06T06:07:57.491Z,98904.89
2019-01-06T06:10:44.247Z,98909.11
2019-01-06T06:13:44.399Z,98911.11
2019-01-06T06:16:32.259Z,98914.11
2019-01-06T06:19:36.054Z,98920.45
2019-01-06T06:22:24.728Z,98919.92
2019-01-06T06:25:18.888Z,98923.89
2019-01-06T06:28:13.509Z,98929.65
2019-01-06T06:31:00.742Z,98940.03
2019-01-06T06:33:55.304Z,98940.94
2019-01-06T06:36:42.036Z,98948.16
2019-01-06T06:39:29.447Z,98949.83
2019-01-06T06:42:23.496Z,98948.56
2019-01-06T06:45:10.182Z,98950.69
2019-01-06T06:48:13.402Z,98950.23
2019-01-06T06:51:19.903Z,98960.50
2019-01-06T06:54:17.488Z,98966.96
2019-01-06T06:57:22.479Z,98967.73
2019-01-06T07:00:49.578Z,98972.08
2019-01-06T07:03:44.016Z,98968.14
2019-01-06T07:06:44.339Z,98973.14
2019-01-06T07:09:27.174Z,98971.03
2019-01-06T07:12:24.458Z,98971.47
2019-01-06T07:15:21.592Z,98980.00
2019-01-06T07:18:08.912Z,98984.80
2019-01-06T07:21:08.156Z,98984.35
2019-01-06T07:23:55.284Z,98985.08
2019-01-06T07:26:49.722Z,98987.84
2019-01-06T07:29:51.284Z,98992.67
2019-01-06T07:32:45.953Z,98992.23
2019-01-06T07:35:46.521Z,98988.66
2019-01-06T07:38:37.990Z,98991.20
2019-01-06T07:41:32.017Z,98995.84
2019-01-06T07:44:20.364Z,98992.18
2019-01-06T07:47:26.854Z,98993.92
2019-01-06T07:50:07.429Z,98988.17
2019-01-06T07:53:04.871Z,98984.85
2019-01-06T07:55:51.833Z,98973.05
2019-01-06T07:58:54.987Z,98970.41
2019-01-06T08:01:42.424Z,98977.28
2019-01-06T08:04:34.202Z,98972.38
2019-01-06T08:07:21.175Z,98974.44
2019-01-06T08:10:07.271Z,98980.50
2019-01-06T08:12:54.489Z,98985.89
2019-01-06T08:15:48.554Z,98987.63
2019-01-06T08:18:44.975Z,98986.61
2019-01-06T08:21:36.323Z,98988.89
2019-01-06T08:24:40.217Z,98990.33
2019-01-06T08:27:27.409Z,98987.77
2019-01-06T08:30:28.481Z,98986.28
2019-01-06T08:33:15.432Z,98986.20
2019-01-06T08:36:09.827Z,98987.41
2019-01-06T08:38:57.029Z,98995.30
2019-01-06T08:41:54.884Z,98997.68
2019-01-06T08:44:41.878Z,98994.41
2019-01-06T08:47:46.025Z,99001.14
2019-01-06T08:50:33.190Z,99000.23
2019-01-06T08:53:19.470Z,98998.27
2019-01-06T08:56:25.990Z,98993.68
2019-01-06T08:59:19.975Z,98999.81
2019-01-06T09:02:26.402Z,98995.06
2019-01-06T09:05:13.077Z,99000.13
2019-01-06T09:08:07.559Z,99002.78
2019-01-06T09:11:02.362Z,99000.23
2019-01-06T09:13:51.287Z,98998.39
2019-01-06T09:16:39.863Z,98992.69
2019-01-06T09:19:27.127Z,98992.58
2019-01-06T09:22:14.412Z,98994.34
2019-01-06T09:25:02.737Z,98991.48
2019-01-06T09:28:06.332Z,98994.98
2019-01-06T09:31:03.776Z,98991.08
2019-01-06T09:33:55.243Z,98994.34
2019-01-06T09:36:42.242Z,98985.72
2019-01-06T09:39:33.614Z,98995.43
2019-01-06T09:42:20.876Z,98994.27
2019-01-06T09:45:07.647Z,98992.33
2019-01-06T09:48:05.042Z,99000.95
2019-01-06T09:50:47.924Z,98992.78
2019-01-06T09:53:45.265Z,98986.45
2019-01-06T09:56:42.656Z,98996.12
2019-01-06T09:59:33.643Z,98990.95
2019-01-06T10:02:20.502Z,98982.44
2019-01-06T10:05:14.800Z,98980.01
2019-01-06T10:08:18.300Z,98972.92
2019-01-06T10:11:12.610Z,98977.41
2019-01-06T10:14:06.683Z,98972.83
2019-01-06T10:17:06.814Z,98968.41
2019-01-06T10:20:10.351Z,98959.67
2019-01-06T10:22:56.891Z,98961.88
2019-01-06T10:25:41.445Z,98957.83
2019-01-06T10:28:38.734Z,98962.54
2019-01-06T10:31:30.040Z,98960.06
2019-01-06T10:34:24.032Z,98952.88
2019-01-06T10:37:11.104Z,98951.99
2019-01-06T10:39:57.654Z,98949.77
2019-01-06T10:42:44.576Z,98959.69
2019-01-06T10:45:35.676Z,98958.64
2019-01-06T10:48:27.230Z,98960.02
2019-01-06T10:51:14.301Z,98971.00
2019-01-06T10:54:11.714Z,98965.34
2019-01-06T10:57:02.600Z,98975.48
2019-01-06T10:59:49.549Z,98975.84
2019-01-06T11:02:37.961Z,98981.16
2019-01-06T11:05:32.425Z,98968.34
2019-01-06T11:08:19.258Z,98968.85
2019-01-06T11:11:10.816Z,98967.02
2019-01-06T11:13:59.225Z,98969.70
2019-01-06T11:16:52.052Z,98966.66
2019-01-06T11:19:47.244Z,98968.20
2019-01-06T11:22:34.074Z,98974.21
2019-01-06T11:25:22.834Z,98974.61
2019-01-06T11:28:07.865Z,98973.30
2019-01-06T11:31:13.854Z,98975.23
2019-01-06T11:34:00.804Z,98975.88
2019-01-06T11:36:53.156Z,98981.72
2019-01-06T11:39:59.726Z,98979.61
2019-01-06T11:43:02.968Z,98984.00
2019-01-06T11:45:50.064Z,98983.46
2019-01-06T11:48:47.578Z,98971.94
2019-01-06T11:51:38.895Z,98987.55
2019-01-06T11:54:32.998Z,98991.25
2019-01-06T11:57:33.309Z,99001.69
2019-01-06T12:00:24.576Z,98992.78
2019-01-06T12:03:14.244Z,98999.28
2019-01-06T12:06:00.908Z,99004.59
2019-01-06T12:08:51.958Z,99001.81
2019-01-06T12:11:46.768Z,99007.76
2019-01-06T12:14:25.963Z,99010.50
2019-01-06T12:17:10.706Z,99015.31
2019-01-06T12:19:58.872Z,99010.20
2019-01-06T12:22:45.805Z,99009.81
2019-01-06T12:25:32.653Z,99019.84
2019-01-06T12:28:19.892Z,99022.45
2019-01-06T12:31:11.408Z,99030.28
2019-01-06T12:33:58.399Z,99020.03
2019-01-06T12:36:45.340Z,99024.61
2019-01-06T12:39:32.377Z,99030.28
2019-01-06T12:42:26.916Z,99034.66
2019-01-06T12:45:27.116Z,99038.39
2019-01-06T12:48:21.661Z,99044.08
2019-01-06T12:51:28.111Z,99047.35
2019-01-06T12:54:22.685Z,99052.81
2019-01-06T12:57:26.334Z,99047.70
2019-01-06T13:00:13.501Z,99050.02
2019-01-06T13:03:04.587Z,99047.81
2019-01-06T13:06:08.017Z,99048.27
2019-01-06T13:08:56.446Z,99059.80
2019-01-06T13:11:43.662Z,99072.27
2019-01-06T13:14:40.695Z,99064.94
2019-01-06T13:17:47.349Z,99070.19
2019-01-06T13:20:36.074Z,99078.97
2019-01-06T13:23:30.606Z,99087.93
2019-01-06T13:26:17.473Z,99090.44
2019-01-06T13:29:20.748Z,99089.23
2019-01-06T13:32:03.498Z,99081.05
2019-01-06T13:35:04.154Z,99087.25
2019-01-06T13:38:07.344Z,99090.59
2019-01-06T13:41:03.008Z,99083.62
2019-01-06T13:43:55.167Z,99089.64
2019-01-06T13:46:49.395Z,99092.75
2019-01-06T13:49:49.711Z,99101.27
2019-01-06T13:52:49.800Z,99109.89
2019-01-06T13:55:36.585Z,99111.98
2019-01-06T13:58:25.066Z,99112.45
2019-01-06T14:01:16.490Z,99110.84
2019-01-06T14:04:03.419Z,99107.31
2019-01-06T14:07:00.001Z,99107.72
2019-01-06T14:09:54.450Z,99111.23
2019-01-06T14:12:41.464Z,99120.08
2019-01-06T14:15:44.819Z,99109.52
2019-01-06T14:18:31.611Z,99119.09
2019-01-06T14:21:18.787Z,99120.15
2019-01-06T14:24:05.815Z,99126.78
2019-01-06T14:26:54.171Z,99126.17
2019-01-06T14:29:48.265Z,99140.63
2019-01-06T14:32:39.833Z,99137.33
2019-01-06T14:35:32.139Z,99147.45
2019-01-06T14:38:20.502Z,99148.71
2019-01-06T14:41:11.668Z,99155.58
2019-01-06T14:44:13.973Z,99160.04
2019-01-06T14:47:08.316Z,99169.45
2019-01-06T14:49:55.537Z,99169.19
2019-01-06T14:52:40.398Z,99177.25
2019-01-06T14:55:29.077Z,99183.91
2019-01-06T14:58:20.067Z,99190.61
2019-01-06T15:01:07.564Z,99193.20
2019-01-06T15:03:55.913Z,99194.52
2019-01-06T15:06:44.888Z,99204.22
2019-01-06T15:09:39.447Z,99210.02
2019-01-06T15:12:26.731Z,99203.55
2019-01-06T15:15:21.015Z,99216.48
2019-01-06T15:18:15.021Z,99210.47
2019-01-06T15:21:02.080Z,99213.16
2019-01-06T15:23:48.797Z,99215.03
2019-01-06T15:26:35.925Z,99214.27
2019-01-06T15:29:36.354Z,99218.59
2019-01-06T15:32:42.689Z,99218.59
2019-01-06T15:35:34.365Z,99220.30
2019-01-06T15:38:25.858Z,99222.94
2019-01-06T15:41:26.334Z,99232.73
2019-01-06T15:44:17.821Z,99239.58
2019-01-06T15:47:07.007Z,99244.83
2019-01-06T15:49:53.713Z,99248.95
2019-01-06T15:53:00.316Z,99242.64
2019-01-06T15:55:48.636Z,99249.15
2019-01-06T15:58:36.046Z,99254.77
2019-01-06T16:01:36.642Z,99265.10
2019-01-06T16:04:36.889Z,99270.35
2019-01-06T16:07:37.274Z,99269.95
2019-01-06T16:10:25.712Z,99277.72
2019-01-06T16:13:12.502Z,99281.26
2019-01-06T16:15:54.864Z,99279.47
2019-01-06T16:18:39.120Z,99283.83
2019-01-06T16:21:28.444Z,99285.16
2019-01-06T16:24:12.549Z,99283.02
2019-01-06T16:27:01.002Z,99285.70
2019-01-06T16:29:47.975Z,99293.80
2019-01-06T16:32:42.586Z,99291.07
2019-01-06T16:35:33.222Z,99297.98
2019-01-06T16:38:27.806Z,99300.09
2019-01-06T16:41:24.426Z,99292.94
2019-01-06T16:44:16.238Z,99299.00
2019-01-06T16:47:02.766Z,99293.23
2019-01-06T16:50:08.932Z,99295.99
2019-01-06T16:52:57.238Z,99293.39
2019-01-06T16:55:48.650Z,99295.99
2019-01-06T16:58:37.494Z,99301.13
2019-01-06T17:01:31.582Z,99307.55
2019-01-06T17:04:23.648Z,99310.56
2019-01-06T17:07:12.101Z,99309.71
2019-01-06T17:09:59.211Z,99311.02
2019-01-06T17:13:00.290Z,99324.45
2019-01-06T17:15:45.857Z,99325.74
2019-01-06T17:18:35.650Z,99328.35
2019-01-06T17:21:27.681Z,99334.01
2019-01-06T17:24:28.234Z,99333.56
2019-01-06T17:27:25.599Z,99334.91
2019-01-06T17:30:14.349Z,99329.36
2019-01-06T17:33:05.843Z,99333.27
2019-01-06T17:35:52.618Z,99337.14
2019-01-06T17:38:44.176Z,99341.33
2019-01-06T17:41:31.536Z,99353.80
2019-01-06T17:44:37.911Z,99349.40
2019-01-06T17:47:32.660Z,99352.16
2019-01-06T17:50:23.672Z,99358.30
2019-01-06T17:53:23.860Z,99362.62
2019-01-06T17:56:29.985Z,99360.50
2019-01-06T17:59:30.767Z,99361.40
2019-01-06T18:02:19.472Z,99366.36
2019-01-06T18:05:05.272Z,99373.16
2019-01-06T18:07:59.635Z,99371.11
2019-01-06T18:10:53.230Z,99382.20
2019-01-06T18:13:40.296Z,99390.09
2019-01-06T18:16:31.484Z,99387.11
2019-01-06T18:19:35.137Z,99393.33
2019-01-06T18:22:36.432Z,99393.73
2019-01-06T18:25:27.512Z,99394.55
2019-01-06T18:28:24.989Z,99399.31
2019-01-06T18:31:11.830Z,99397.27
2019-01-06T18:34:03.191Z,99393.03
2019-01-06T18:36:49.948Z,99395.86
2019-01-06T18:39:37.146Z,99390.13
2019-01-06T18:42:28.538Z,99390.28
2019-01-06T18:45:27.989Z,99400.84
2019-01-06T18:48:14.689Z,99407.80
2019-01-06T18:51:09.154Z,99403.00
2019-01-06T18:54:09.515Z,99412.59
2019-01-06T18:57:13.115Z,99414.75
2019-01-06T19:00:04.502Z,99417.39
2019-01-06T19:03:11.127Z,99412.33
2019-01-06T19:05:57.748Z,99418.43
2019-01-06T19:08:52.477Z,99419.25
2019-01-06T19:11:49.998Z,99413.48
2019-01-06T19:14:36.921Z,99417.84
2019-01-06T19:17:23.415Z,99422.30
2019-01-06T19:20:19.027Z,99426.55
2019-01-06T19:23:19.284Z,99433.02
2019-01-06T19:26:06.563Z,99432.53
2019-01-06T19:29:03.637Z,99431.75
2019-01-06T19:32:10.174Z,99428.70
2019-01-06T19:34:57.282Z,99432.23
2019-01-06T19:37:48.424Z,99431.23
2019-01-06T19:40:35.412Z,99433.02
2019-01-06T19:43:29.794Z,99433.05
2019-01-06T19:46:13.225Z,99432.20
2019-01-06T19:49:00.082Z,99433.57
2019-01-06T19:51:48.377Z,99439.67
2019-01-06T19:54:29.043Z,99444.02
2019-01-06T19:57:22.974Z,99437.95
2019-01-06T20:00:23.240Z,99443.16
2019-01-06T20:03:29.715Z,99445.32
2019-01-06T20:06:25.271Z,99450.19
2019-01-06T20:09:19.386Z,99444.53
2019-01-06T20:12:07.847Z,99448.50
2019-01-06T20:14:54.880Z,99451.05
2019-01-06T20:17:41.981Z,99453.61
2019-01-06T20:20:39.358Z,99461.02
2019-01-06T20:23:28.001Z,99458.89
2019-01-06T20:26:26.317Z,99465.88
2019-01-06T20:29:14.936Z,99455.66
2019-01-06T20:31:56.990Z,99459.58
2019-01-06T20:34:45.421Z,99462.63
2019-01-06T20:37:42.492Z,99468.79
2019-01-06T20:40:43.237Z,99469.78
2019-01-06T20:43:31.067Z,99474.92
2019-01-06T20:46:37.504Z,99470.81
2019-01-06T20:49:26.480Z,99465.09
2019-01-06T20:52:26.993Z,99463.78
2019-01-06T20:55:18.203Z,99463.34
2019-01-06T20:58:15.538Z,99466.35
2019-01-06T21:01:19.081Z,99473.75
2019-01-06T21:04:10.506Z,99479.92
2019-01-06T21:07:13.734Z,99487.33
2019-01-06T21:10:00.831Z,99493.91
2019-01-06T21:13:00.852Z,99492.91
2019-01-06T21:15:47.943Z,99491.61
2019-01-06T21:18:34.640Z,99492.63
2019-01-06T21:21:21.085Z,99490.51
2019-01-06T21:24:10.845Z,99485.74
2019-01-06T21:26:58.190Z,99490.44
2019-01-06T21:29:45.176Z,99489.58
2019-01-06T21:32:42.757Z,99494.06
2019-01-06T21:35:20.040Z,99488.00
2019-01-06T21:38:20.169Z,99487.11
2019-01-06T21:41:07.051Z,99482.83
2019-01-06T21:43:58.270Z,99479.47
2019-01-06T21:46:45.215Z,99485.15
2019-01-06T21:49:26.324Z,99486.38
2019-01-06T21:52:20.917Z,99484.29
2019-01-06T21:55:08.538Z,99488.48
2019-01-06T21:58:05.980Z,99484.95
2019-01-06T22:01:00.711Z,99483.27
2019-01-06T22:04:08.338Z,99484.98
2019-01-06T22:06:56.696Z,99488.48
2019-01-06T22:09:43.553Z,99487.20
2019-01-06T22:12:30.449Z,99488.06
2019-01-06T22:15:24.532Z,99495.05
2019-01-06T22:18:18.926Z,99487.34
2019-01-06T22:21:19.367Z,99485.63
2019-01-06T22:24:13.364Z,99492.00
2019-01-06T22:27:10.509Z,99489.23
2019-01-06T22:30:01.579Z,99484.41
2019-01-06T22:32:54.622Z,99485.37
2019-01-06T22:35:47.319Z,99481.55
2019-01-06T22:38:34.125Z,99482.48
2019-01-06T22:41:22.805Z,99486.45
2019-01-06T22:44:16.783Z,99482.98
2019-01-06T22:47:04.078Z,99483.02
2019-01-06T22:49:50.929Z,99493.11
2019-01-06T22:52:45.252Z,99489.97
2019-01-06T22:55:32.358Z,99490.35
2019-01-06T22:58:27.064Z,99498.89
2019-01-06T23:01:27.869Z,99498.20
2019-01-06T23:04:20.784Z,99502.54
2019-01-06T23:07:23.461Z,99497.49
2019-01-06T23:10:08.316Z,99510.09
2019-01-06T23:12:56.709Z,99500.86
2019-01-06T23:15:43.398Z,99514.67
2019-01-06T23:18:30.103Z,99506.13
2019-01-06T23:21:16.095Z,99507.08
2019-01-06T23:24:02.900Z,99508.88
2019-01-06T23:26:57.484Z,99510.44
2019-01-06T23:29:51.672Z,99510.48
2019-01-06T23:32:39.184Z,99514.88
2019-01-06T23:35:33.419Z,99522.30
2019-01-06T23:38:36.883Z,99514.47
2019-01-06T23:41:40.130Z,99522.24
2019-01-06T23:44:26.919Z,99521.06
2019-01-06T23:47:15.525Z,99519.82
2019-01-06T23:50:04.306Z,99527.24
2019-01-06T23:52:53.467Z,99514.08
2019-01-06T23:55:41.817Z,99525.20
2019-01-06T23:58:28.860Z,99527.30
